Concordia, Argentina
Current Conditions -  °F | °C
As of 6:00 PM on Sunday 25 Jan 2015 (Local Time) from SBUG Reporting Station
Scattered Clouds Scattered Clouds  
Wind Chill: 32°   Ceiling: Unl
Heat Index: 34°   Visibility: 6mi
Dew Point: 20°   Wind: 5mph
Humidity: 49%   Direction: 80°E
Pressure: 29.77"   Gusts: NA
Location:  31.39°S, 58.03°W
Report Text: SBUG 252100Z 08004KT 9999 FEW024TCU SCT024 32/20 Q1008
Loading
Personal Weather Stations






























Interactive Weather Map New forecast layout! Learn more

10-Day Weather Forecast

Advertisements
Track Severe Weather on mobile